sensor_id;sensor_type;location;lat;lon;timestamp;temperature;humidity
37642;DHT22;23486;51.956;5.888;2024-02-23T00:01:04;5.00;99.90
37642;DHT22;23486;51.956;5.888;2024-02-23T00:03:30;5.00;99.90
37642;DHT22;23486;51.956;5.888;2024-02-23T00:05:55;4.90;99.90
37642;DHT22;23486;51.956;5.888;2024-02-23T00:08:22;4.90;99.90
37642;DHT22;23486;51.956;5.888;2024-02-23T00:10:47;4.90;99.90
37642;DHT22;23486;51.956;5.888;2024-02-23T00:13:13;4.90;99.90
37642;DHT22;23486;51.956;5.888;2024-02-23T00:15:38;5.00;99.90
37642;DHT22;23486;51.956;5.888;2024-02-23T00:18:04;5.00;99.90
37642;DHT22;23486;51.956;5.888;2024-02-23T00:20:29;5.00;99.90
37642;DHT22;23486;51.956;5.888;2024-02-23T00:22:55;5.00;99.90
37642;DHT22;23486;51.956;5.888;2024-02-23T00:25:20;5.00;99.90
37642;DHT22;23486;51.956;5.888;2024-02-23T00:27:46;5.00;99.90
37642;DHT22;23486;51.956;5.888;2024-02-23T00:30:12;5.10;99.90
37642;DHT22;23486;51.956;5.888;2024-02-23T00:32:38;5.00;99.90
37642;DHT22;23486;51.956;5.888;2024-02-23T00:35:04;5.00;99.90
37642;DHT22;23486;51.956;5.888;2024-02-23T00:37:29;5.00;99.90
37642;DHT22;23486;51.956;5.888;2024-02-23T00:40:03;5.00;99.90
37642;DHT22;23486;51.956;5.888;2024-02-23T00:42:29;5.00;99.90
37642;DHT22;23486;51.956;5.888;2024-02-23T00:44:55;4.90;99.90
37642;DHT22;23486;51.956;5.888;2024-02-23T00:47:21;5.00;99.90
37642;DHT22;23486;51.956;5.888;2024-02-23T00:49:46;4.90;99.90
37642;DHT22;23486;51.956;5.888;2024-02-23T00:52:12;5.00;99.90
37642;DHT22;23486;51.956;5.888;2024-02-23T00:54:37;5.00;99.90
37642;DHT22;23486;51.956;5.888;2024-02-23T00:57:03;4.90;99.90
37642;DHT22;23486;51.956;5.888;2024-02-23T00:59:28;4.80;99.90
37642;DHT22;23486;51.956;5.888;2024-02-23T01:01:54;4.80;99.90
37642;DHT22;23486;51.956;5.888;2024-02-23T01:04:20;4.80;99.90
37642;DHT22;23486;51.956;5.888;2024-02-23T01:06:46;4.80;99.90
37642;DHT22;23486;51.956;5.888;2024-02-23T01:09:11;4.90;99.90
37642;DHT22;23486;51.956;5.888;2024-02-23T01:11:36;4.90;99.90
37642;DHT22;23486;51.956;5.888;2024-02-23T01:14:02;5.00;99.90
37642;DHT22;23486;51.956;5.888;2024-02-23T01:16:31;5.00;99.90
37642;DHT22;23486;51.956;5.888;2024-02-23T01:18:57;5.00;99.90
37642;DHT22;23486;51.956;5.888;2024-02-23T01:21:23;5.00;99.90
37642;DHT22;23486;51.956;5.888;2024-02-23T01:23:48;5.00;99.90
37642;DHT22;23486;51.956;5.888;2024-02-23T01:26:14;5.00;99.90
37642;DHT22;23486;51.956;5.888;2024-02-23T01:28:39;5.00;99.90
37642;DHT22;23486;51.956;5.888;2024-02-23T01:31:07;5.10;99.90
37642;DHT22;23486;51.956;5.888;2024-02-23T01:33:36;5.00;99.90
37642;DHT22;23486;51.956;5.888;2024-02-23T01:36:01;5.10;99.90
37642;DHT22;23486;51.956;5.888;2024-02-23T01:38:27;5.10;99.90
37642;DHT22;23486;51.956;5.888;2024-02-23T01:40:56;5.10;99.90
37642;DHT22;23486;51.956;5.888;2024-02-23T01:43:22;5.10;99.90
37642;DHT22;23486;51.956;5.888;2024-02-23T01:45:48;5.00;99.90
37642;DHT22;23486;51.956;5.888;2024-02-23T01:48:13;4.90;99.90
37642;DHT22;23486;51.956;5.888;2024-02-23T01:50:39;4.90;99.90
37642;DHT22;23486;51.956;5.888;2024-02-23T01:53:04;4.80;99.90
37642;DHT22;23486;51.956;5.888;2024-02-23T01:55:30;4.80;99.90
37642;DHT22;23486;51.956;5.888;2024-02-23T01:57:56;4.80;99.90
37642;DHT22;23486;51.956;5.888;2024-02-23T02:00:22;4.70;99.90
37642;DHT22;23486;51.956;5.888;2024-02-23T02:02:48;4.70;99.90
37642;DHT22;23486;51.956;5.888;2024-02-23T02:05:14;4.70;99.90
37642;DHT22;23486;51.956;5.888;2024-02-23T02:07:40;4.70;99.90
37642;DHT22;23486;51.956;5.888;2024-02-23T02:10:06;4.60;99.90
37642;DHT22;23486;51.956;5.888;2024-02-23T02:12:33;4.60;99.90
37642;DHT22;23486;51.956;5.888;2024-02-23T02:15:02;4.60;99.90
37642;DHT22;23486;51.956;5.888;2024-02-23T02:17:28;4.60;99.90
37642;DHT22;23486;51.956;5.888;2024-02-23T02:19:53;4.60;99.90
37642;DHT22;23486;51.956;5.888;2024-02-23T02:22:20;4.50;99.90
37642;DHT22;23486;51.956;5.888;2024-02-23T02:24:46;4.50;99.90
37642;DHT22;23486;51.956;5.888;2024-02-23T02:27:13;4.50;99.90
37642;DHT22;23486;51.956;5.888;2024-02-23T02:29:39;4.50;99.90
37642;DHT22;23486;51.956;5.888;2024-02-23T02:32:05;4.50;99.90
37642;DHT22;23486;51.956;5.888;2024-02-23T02:34:30;4.50;99.90
37642;DHT22;23486;51.956;5.888;2024-02-23T02:36:56;4.50;99.90
37642;DHT22;23486;51.956;5.888;2024-02-23T02:39:24;4.50;99.90
37642;DHT22;23486;51.956;5.888;2024-02-23T02:41:50;4.50;99.90
37642;DHT22;23486;51.956;5.888;2024-02-23T02:44:15;4.50;99.90
37642;DHT22;23486;51.956;5.888;2024-02-23T02:46:41;4.50;99.90
37642;DHT22;23486;51.956;5.888;2024-02-23T02:49:07;4.50;99.90
37642;DHT22;23486;51.956;5.888;2024-02-23T02:51:32;4.60;99.90
37642;DHT22;23486;51.956;5.888;2024-02-23T02:53:58;4.60;99.90
37642;DHT22;23486;51.956;5.888;2024-02-23T02:56:23;4.60;99.90
37642;DHT22;23486;51.956;5.888;2024-02-23T02:58:49;4.60;99.90
37642;DHT22;23486;51.956;5.888;2024-02-23T03:01:14;4.60;99.90
37642;DHT22;23486;51.956;5.888;2024-02-23T03:03:39;4.60;99.90
37642;DHT22;23486;51.956;5.888;2024-02-23T03:06:05;4.60;99.90
37642;DHT22;23486;51.956;5.888;2024-02-23T03:08:33;4.50;99.90
37642;DHT22;23486;51.956;5.888;2024-02-23T03:10:59;4.50;99.90
37642;DHT22;23486;51.956;5.888;2024-02-23T03:13:25;4.50;99.90
37642;DHT22;23486;51.956;5.888;2024-02-23T03:15:50;4.50;99.90
37642;DHT22;23486;51.956;5.888;2024-02-23T03:18:16;4.50;99.90
37642;DHT22;23486;51.956;5.888;2024-02-23T03:20:42;4.50;99.90
37642;DHT22;23486;51.956;5.888;2024-02-23T03:23:07;4.40;99.90
37642;DHT22;23486;51.956;5.888;2024-02-23T03:25:33;4.40;99.90
37642;DHT22;23486;51.956;5.888;2024-02-23T03:27:59;4.40;99.90
37642;DHT22;23486;51.956;5.888;2024-02-23T03:30:24;4.40;99.90
37642;DHT22;23486;51.956;5.888;2024-02-23T03:32:51;4.50;99.90
37642;DHT22;23486;51.956;5.888;2024-02-23T03:35:16;4.60;99.90
37642;DHT22;23486;51.956;5.888;2024-02-23T03:37:42;4.60;99.90
37642;DHT22;23486;51.956;5.888;2024-02-23T03:40:07;4.50;99.90
37642;DHT22;23486;51.956;5.888;2024-02-23T03:42:33;4.60;99.90
37642;DHT22;23486;51.956;5.888;2024-02-23T03:44:59;4.60;99.90
37642;DHT22;23486;51.956;5.888;2024-02-23T03:47:24;4.60;99.90
37642;DHT22;23486;51.956;5.888;2024-02-23T03:49:49;4.60;99.90
37642;DHT22;23486;51.956;5.888;2024-02-23T03:52:15;4.60;99.90
37642;DHT22;23486;51.956;5.888;2024-02-23T03:54:41;4.60;99.90
37642;DHT22;23486;51.956;5.888;2024-02-23T03:57:06;4.60;99.90
37642;DHT22;23486;51.956;5.888;2024-02-23T03:59:32;4.50;99.90
37642;DHT22;23486;51.956;5.888;2024-02-23T04:01:57;4.50;99.90
37642;DHT22;23486;51.956;5.888;2024-02-23T04:04:23;4.40;99.90
37642;DHT22;23486;51.956;5.888;2024-02-23T04:06:48;4.40;99.90
37642;DHT22;23486;51.956;5.888;2024-02-23T04:09:14;4.40;99.90
37642;DHT22;23486;51.956;5.888;2024-02-23T04:11:39;4.30;99.90
37642;DHT22;23486;51.956;5.888;2024-02-23T04:14:05;4.30;99.90
37642;DHT22;23486;51.956;5.888;2024-02-23T04:16:30;4.30;99.90
37642;DHT22;23486;51.956;5.888;2024-02-23T04:18:56;4.40;99.90
37642;DHT22;23486;51.956;5.888;2024-02-23T04:21:22;4.40;99.90
37642;DHT22;23486;51.956;5.888;2024-02-23T04:23:47;4.40;99.90
37642;DHT22;23486;51.956;5.888;2024-02-23T04:26:13;4.40;99.90
37642;DHT22;23486;51.956;5.888;2024-02-23T04:28:39;4.40;99.90
37642;DHT22;23486;51.956;5.888;2024-02-23T04:31:04;4.30;99.90
37642;DHT22;23486;51.956;5.888;2024-02-23T04:33:30;4.30;99.90
37642;DHT22;23486;51.956;5.888;2024-02-23T04:35:55;4.30;99.90
37642;DHT22;23486;51.956;5.888;2024-02-23T04:38:21;4.40;99.90
37642;DHT22;23486;51.956;5.888;2024-02-23T04:40:46;4.40;99.90
37642;DHT22;23486;51.956;5.888;2024-02-23T04:43:12;4.40;99.90
37642;DHT22;23486;51.956;5.888;2024-02-23T04:45:37;4.40;99.90
37642;DHT22;23486;51.956;5.888;2024-02-23T04:48:03;4.40;99.90
37642;DHT22;23486;51.956;5.888;2024-02-23T04:50:29;4.40;99.90
37642;DHT22;23486;51.956;5.888;2024-02-23T04:52:54;4.30;99.90
37642;DHT22;23486;51.956;5.888;2024-02-23T04:55:20;4.30;99.90
37642;DHT22;23486;51.956;5.888;2024-02-23T04:57:45;4.30;99.90
37642;DHT22;23486;51.956;5.888;2024-02-23T05:00:11;4.40;99.90
37642;DHT22;23486;51.956;5.888;2024-02-23T05:02:37;4.30;99.90
37642;DHT22;23486;51.956;5.888;2024-02-23T05:05:03;4.40;99.90
37642;DHT22;23486;51.956;5.888;2024-02-23T05:07:32;4.40;99.90
37642;DHT22;23486;51.956;5.888;2024-02-23T05:09:58;4.40;99.90
37642;DHT22;23486;51.956;5.888;2024-02-23T05:12:24;4.50;99.90
37642;DHT22;23486;51.956;5.888;2024-02-23T05:14:49;4.50;99.90
37642;DHT22;23486;51.956;5.888;2024-02-23T05:17:15;4.60;99.90
37642;DHT22;23486;51.956;5.888;2024-02-23T05:19:40;4.60;99.90
37642;DHT22;23486;51.956;5.888;2024-02-23T05:22:09;4.70;99.90
37642;DHT22;23486;51.956;5.888;2024-02-23T05:24:34;4.70;99.90
37642;DHT22;23486;51.956;5.888;2024-02-23T05:27:00;4.80;99.90
37642;DHT22;23486;51.956;5.888;2024-02-23T05:29:28;4.80;99.90
37642;DHT22;23486;51.956;5.888;2024-02-23T05:31:53;4.80;99.90
37642;DHT22;23486;51.956;5.888;2024-02-23T05:34:19;4.90;99.90
37642;DHT22;23486;51.956;5.888;2024-02-23T05:36:45;4.90;99.90
37642;DHT22;23486;51.956;5.888;2024-02-23T05:39:14;4.90;99.90
37642;DHT22;23486;51.956;5.888;2024-02-23T05:41:43;5.00;99.90
37642;DHT22;23486;51.956;5.888;2024-02-23T05:44:08;5.00;99.90
37642;DHT22;23486;51.956;5.888;2024-02-23T05:46:35;5.00;99.90
37642;DHT22;23486;51.956;5.888;2024-02-23T05:49:01;5.00;99.90
37642;DHT22;23486;51.956;5.888;2024-02-23T05:51:29;5.00;99.90
37642;DHT22;23486;51.956;5.888;2024-02-23T05:53:55;5.00;99.90
37642;DHT22;23486;51.956;5.888;2024-02-23T05:56:21;5.00;99.90
37642;DHT22;23486;51.956;5.888;2024-02-23T05:58:47;5.00;99.90
37642;DHT22;23486;51.956;5.888;2024-02-23T06:01:13;5.10;99.90
37642;DHT22;23486;51.956;5.888;2024-02-23T06:03:39;5.10;99.90
37642;DHT22;23486;51.956;5.888;2024-02-23T06:06:07;5.10;99.90
37642;DHT22;23486;51.956;5.888;2024-02-23T06:08:33;5.10;99.90
37642;DHT22;23486;51.956;5.888;2024-02-23T06:10:59;5.10;99.90
37642;DHT22;23486;51.956;5.888;2024-02-23T06:13:25;5.10;99.90
37642;DHT22;23486;51.956;5.888;2024-02-23T06:15:50;5.10;99.90
37642;DHT22;23486;51.956;5.888;2024-02-23T06:18:16;5.10;99.90
37642;DHT22;23486;51.956;5.888;2024-02-23T06:20:41;5.00;99.90
37642;DHT22;23486;51.956;5.888;2024-02-23T06:23:07;5.00;99.90
37642;DHT22;23486;51.956;5.888;2024-02-23T06:25:32;5.00;99.90
37642;DHT22;23486;51.956;5.888;2024-02-23T06:27:58;5.00;99.90
37642;DHT22;23486;51.956;5.888;2024-02-23T06:30:23;5.00;99.90
37642;DHT22;23486;51.956;5.888;2024-02-23T06:32:49;5.00;99.90
37642;DHT22;23486;51.956;5.888;2024-02-23T06:35:14;5.00;99.90
37642;DHT22;23486;51.956;5.888;2024-02-23T06:37:40;4.90;99.90
37642;DHT22;23486;51.956;5.888;2024-02-23T06:40:05;4.90;99.90
37642;DHT22;23486;51.956;5.888;2024-02-23T06:42:32;5.00;99.90
37642;DHT22;23486;51.956;5.888;2024-02-23T06:44:58;5.00;99.90
37642;DHT22;23486;51.956;5.888;2024-02-23T06:47:23;5.00;99.90
37642;DHT22;23486;51.956;5.888;2024-02-23T06:49:50;5.10;99.90
37642;DHT22;23486;51.956;5.888;2024-02-23T06:52:15;5.10;99.90
37642;DHT22;23486;51.956;5.888;2024-02-23T06:54:41;5.20;99.90
37642;DHT22;23486;51.956;5.888;2024-02-23T06:57:06;5.20;99.90
37642;DHT22;23486;51.956;5.888;2024-02-23T06:59:32;5.20;99.90
37642;DHT22;23486;51.956;5.888;2024-02-23T07:01:58;5.20;99.90
37642;DHT22;23486;51.956;5.888;2024-02-23T07:04:24;5.30;99.90
37642;DHT22;23486;51.956;5.888;2024-02-23T07:06:50;5.30;99.90
37642;DHT22;23486;51.956;5.888;2024-02-23T07:09:16;5.30;99.90
37642;DHT22;23486;51.956;5.888;2024-02-23T07:11:41;5.30;99.90
37642;DHT22;23486;51.956;5.888;2024-02-23T07:14:09;5.30;99.90
37642;DHT22;23486;51.956;5.888;2024-02-23T07:16:37;5.40;99.90
37642;DHT22;23486;51.956;5.888;2024-02-23T07:19:04;5.40;99.90
37642;DHT22;23486;51.956;5.888;2024-02-23T07:21:30;5.40;99.90
37642;DHT22;23486;51.956;5.888;2024-02-23T07:23:55;5.40;99.90
37642;DHT22;23486;51.956;5.888;2024-02-23T07:26:21;5.50;99.90
37642;DHT22;23486;51.956;5.888;2024-02-23T07:28:47;5.50;99.90
37642;DHT22;23486;51.956;5.888;2024-02-23T07:31:13;5.50;99.90
37642;DHT22;23486;51.956;5.888;2024-02-23T07:33:39;5.50;99.90
37642;DHT22;23486;51.956;5.888;2024-02-23T07:36:05;5.60;99.90
37642;DHT22;23486;51.956;5.888;2024-02-23T07:38:30;5.60;99.90
37642;DHT22;23486;51.956;5.888;2024-02-23T07:40:56;5.70;99.90
37642;DHT22;23486;51.956;5.888;2024-02-23T07:43:21;5.70;99.90
37642;DHT22;23486;51.956;5.888;2024-02-23T07:45:46;5.60;99.90
37642;DHT22;23486;51.956;5.888;2024-02-23T07:48:12;5.70;99.90
37642;DHT22;23486;51.956;5.888;2024-02-23T07:50:37;5.70;99.90
37642;DHT22;23486;51.956;5.888;2024-02-23T07:53:03;5.80;99.90
37642;DHT22;23486;51.956;5.888;2024-02-23T07:55:29;5.80;99.90
37642;DHT22;23486;51.956;5.888;2024-02-23T07:57:55;5.80;99.90
37642;DHT22;23486;51.956;5.888;2024-02-23T08:00:26;5.90;99.90
37642;DHT22;23486;51.956;5.888;2024-02-23T08:02:52;5.90;99.90
37642;DHT22;23486;51.956;5.888;2024-02-23T08:05:19;5.90;99.90
37642;DHT22;23486;51.956;5.888;2024-02-23T08:07:45;5.90;99.90
37642;DHT22;23486;51.956;5.888;2024-02-23T08:10:10;6.00;99.90
37642;DHT22;23486;51.956;5.888;2024-02-23T08:12:38;6.10;99.90
37642;DHT22;23486;51.956;5.888;2024-02-23T08:15:03;6.10;99.90
37642;DHT22;23486;51.956;5.888;2024-02-23T08:17:29;6.20;99.90
37642;DHT22;23486;51.956;5.888;2024-02-23T08:19:54;6.30;99.90
37642;DHT22;23486;51.956;5.888;2024-02-23T08:22:20;6.30;99.90
37642;DHT22;23486;51.956;5.888;2024-02-23T08:24:45;6.30;99.90
37642;DHT22;23486;51.956;5.888;2024-02-23T08:27:11;6.30;99.90
37642;DHT22;23486;51.956;5.888;2024-02-23T08:29:39;6.30;99.90
37642;DHT22;23486;51.956;5.888;2024-02-23T08:32:05;6.30;99.90
37642;DHT22;23486;51.956;5.888;2024-02-23T08:34:31;6.30;99.90
37642;DHT22;23486;51.956;5.888;2024-02-23T08:36:56;6.30;99.90
37642;DHT22;23486;51.956;5.888;2024-02-23T08:39:22;6.30;99.90
37642;DHT22;23486;51.956;5.888;2024-02-23T08:41:48;6.40;99.90
37642;DHT22;23486;51.956;5.888;2024-02-23T08:44:13;6.40;99.90
37642;DHT22;23486;51.956;5.888;2024-02-23T08:46:39;6.50;99.90
37642;DHT22;23486;51.956;5.888;2024-02-23T08:49:05;6.50;99.90
37642;DHT22;23486;51.956;5.888;2024-02-23T08:51:30;6.60;99.90
37642;DHT22;23486;51.956;5.888;2024-02-23T08:53:56;6.70;99.90
37642;DHT22;23486;51.956;5.888;2024-02-23T08:56:22;6.80;99.90
37642;DHT22;23486;51.956;5.888;2024-02-23T08:58:48;6.90;99.90
37642;DHT22;23486;51.956;5.888;2024-02-23T09:01:13;7.00;99.90
37642;DHT22;23486;51.956;5.888;2024-02-23T09:03:38;7.00;99.90
37642;DHT22;23486;51.956;5.888;2024-02-23T09:06:04;7.00;99.90
37642;DHT22;23486;51.956;5.888;2024-02-23T09:08:29;7.00;99.90
37642;DHT22;23486;51.956;5.888;2024-02-23T09:10:55;7.00;99.90
37642;DHT22;23486;51.956;5.888;2024-02-23T09:13:20;7.00;99.90
37642;DHT22;23486;51.956;5.888;2024-02-23T09:15:46;7.00;99.90
37642;DHT22;23486;51.956;5.888;2024-02-23T09:18:11;7.00;99.90
37642;DHT22;23486;51.956;5.888;2024-02-23T09:20:37;7.00;99.90
37642;DHT22;23486;51.956;5.888;2024-02-23T09:23:02;7.00;99.90
37642;DHT22;23486;51.956;5.888;2024-02-23T09:25:28;7.10;99.90
37642;DHT22;23486;51.956;5.888;2024-02-23T09:27:56;7.00;99.90
37642;DHT22;23486;51.956;5.888;2024-02-23T09:30:22;7.00;99.90
37642;DHT22;23486;51.956;5.888;2024-02-23T09:32:47;7.00;99.90
37642;DHT22;23486;51.956;5.888;2024-02-23T09:35:12;7.00;99.90
37642;DHT22;23486;51.956;5.888;2024-02-23T09:37:38;7.00;99.90
37642;DHT22;23486;51.956;5.888;2024-02-23T09:40:04;7.00;99.90
37642;DHT22;23486;51.956;5.888;2024-02-23T09:42:30;7.00;99.90
37642;DHT22;23486;51.956;5.888;2024-02-23T09:44:58;6.90;99.90
37642;DHT22;23486;51.956;5.888;2024-02-23T09:47:27;6.90;99.90
37642;DHT22;23486;51.956;5.888;2024-02-23T09:49:53;7.00;99.90
37642;DHT22;23486;51.956;5.888;2024-02-23T09:52:19;7.00;99.90
37642;DHT22;23486;51.956;5.888;2024-02-23T09:54:45;7.10;99.90
37642;DHT22;23486;51.956;5.888;2024-02-23T09:57:11;7.20;99.90
37642;DHT22;23486;51.956;5.888;2024-02-23T09:59:36;7.20;99.90
37642;DHT22;23486;51.956;5.888;2024-02-23T10:02:03;7.30;99.90
37642;DHT22;23486;51.956;5.888;2024-02-23T10:04:31;7.30;99.90
37642;DHT22;23486;51.956;5.888;2024-02-23T10:06:56;7.30;99.90
37642;DHT22;23486;51.956;5.888;2024-02-23T10:09:22;7.40;99.90
37642;DHT22;23486;51.956;5.888;2024-02-23T10:11:53;7.50;99.90
37642;DHT22;23486;51.956;5.888;2024-02-23T10:14:19;7.50;99.90
37642;DHT22;23486;51.956;5.888;2024-02-23T10:16:44;7.60;99.90
37642;DHT22;23486;51.956;5.888;2024-02-23T10:19:10;7.60;99.90
37642;DHT22;23486;51.956;5.888;2024-02-23T10:21:35;7.50;99.90
37642;DHT22;23486;51.956;5.888;2024-02-23T10:24:01;7.50;99.90
37642;DHT22;23486;51.956;5.888;2024-02-23T10:26:27;7.50;99.90
37642;DHT22;23486;51.956;5.888;2024-02-23T10:28:53;7.40;99.90
37642;DHT22;23486;51.956;5.888;2024-02-23T10:31:18;7.30;99.90
37642;DHT22;23486;51.956;5.888;2024-02-23T10:33:44;7.20;99.90
37642;DHT22;23486;51.956;5.888;2024-02-23T10:36:10;7.40;99.90
37642;DHT22;23486;51.956;5.888;2024-02-23T10:38:37;7.30;99.90
37642;DHT22;23486;51.956;5.888;2024-02-23T10:41:05;7.30;99.90
37642;DHT22;23486;51.956;5.888;2024-02-23T10:43:33;7.30;99.90
37642;DHT22;23486;51.956;5.888;2024-02-23T10:45:59;7.20;99.90
37642;DHT22;23486;51.956;5.888;2024-02-23T10:48:28;7.20;99.90
37642;DHT22;23486;51.956;5.888;2024-02-23T10:50:53;7.30;99.90
37642;DHT22;23486;51.956;5.888;2024-02-23T10:53:20;7.50;99.90
37642;DHT22;23486;51.956;5.888;2024-02-23T10:55:46;7.60;99.90
37642;DHT22;23486;51.956;5.888;2024-02-23T10:58:12;7.60;99.90
37642;DHT22;23486;51.956;5.888;2024-02-23T11:00:39;7.70;99.90
37642;DHT22;23486;51.956;5.888;2024-02-23T11:03:04;7.70;99.90
37642;DHT22;23486;51.956;5.888;2024-02-23T11:05:32;7.70;99.90
37642;DHT22;23486;51.956;5.888;2024-02-23T11:07:58;7.70;99.90
37642;DHT22;23486;51.956;5.888;2024-02-23T11:10:23;7.70;99.90
37642;DHT22;23486;51.956;5.888;2024-02-23T11:12:59;7.70;99.90
37642;DHT22;23486;51.956;5.888;2024-02-23T11:15:28;7.70;99.90
37642;DHT22;23486;51.956;5.888;2024-02-23T11:17:54;7.60;99.90
37642;DHT22;23486;51.956;5.888;2024-02-23T11:20:19;7.60;99.90
37642;DHT22;23486;51.956;5.888;2024-02-23T11:22:48;7.60;99.90
37642;DHT22;23486;51.956;5.888;2024-02-23T11:25:16;7.70;99.90
37642;DHT22;23486;51.956;5.888;2024-02-23T11:27:42;7.70;99.90
37642;DHT22;23486;51.956;5.888;2024-02-23T11:30:09;7.70;99.90
37642;DHT22;23486;51.956;5.888;2024-02-23T11:32:38;7.70;99.90
37642;DHT22;23486;51.956;5.888;2024-02-23T11:35:06;7.70;99.90
37642;DHT22;23486;51.956;5.888;2024-02-23T11:37:31;7.70;99.90
37642;DHT22;23486;51.956;5.888;2024-02-23T11:39:58;7.70;99.90
37642;DHT22;23486;51.956;5.888;2024-02-23T11:42:24;7.70;99.90
37642;DHT22;23486;51.956;5.888;2024-02-23T11:44:51;7.70;99.90
37642;DHT22;23486;51.956;5.888;2024-02-23T11:47:19;7.80;99.90
37642;DHT22;23486;51.956;5.888;2024-02-23T11:49:44;7.90;99.90
37642;DHT22;23486;51.956;5.888;2024-02-23T11:52:18;7.80;99.90
37642;DHT22;23486;51.956;5.888;2024-02-23T11:54:44;7.90;99.90
37642;DHT22;23486;51.956;5.888;2024-02-23T11:57:10;8.00;99.90
37642;DHT22;23486;51.956;5.888;2024-02-23T11:59:35;8.00;99.90
37642;DHT22;23486;51.956;5.888;2024-02-23T12:02:01;8.10;99.90
37642;DHT22;23486;51.956;5.888;2024-02-23T12:04:27;8.10;99.90
37642;DHT22;23486;51.956;5.888;2024-02-23T12:06:54;8.10;99.90
37642;DHT22;23486;51.956;5.888;2024-02-23T12:09:20;8.00;99.90
37642;DHT22;23486;51.956;5.888;2024-02-23T12:11:45;8.00;99.90
37642;DHT22;23486;51.956;5.888;2024-02-23T12:14:11;7.90;99.90
37642;DHT22;23486;51.956;5.888;2024-02-23T12:16:36;7.90;99.90
37642;DHT22;23486;51.956;5.888;2024-02-23T12:19:02;7.90;99.90
37642;DHT22;23486;51.956;5.888;2024-02-23T12:21:28;7.90;99.90
37642;DHT22;23486;51.956;5.888;2024-02-23T12:23:54;7.80;99.90
37642;DHT22;23486;51.956;5.888;2024-02-23T12:26:22;7.80;99.90
37642;DHT22;23486;51.956;5.888;2024-02-23T12:28:47;7.80;99.90
37642;DHT22;23486;51.956;5.888;2024-02-23T12:31:13;7.80;99.90
37642;DHT22;23486;51.956;5.888;2024-02-23T12:33:39;7.80;99.90
37642;DHT22;23486;51.956;5.888;2024-02-23T12:36:13;7.80;99.90
37642;DHT22;23486;51.956;5.888;2024-02-23T12:38:38;7.90;99.90
37642;DHT22;23486;51.956;5.888;2024-02-23T12:41:04;7.90;99.90
37642;DHT22;23486;51.956;5.888;2024-02-23T12:43:29;8.00;99.90
37642;DHT22;23486;51.956;5.888;2024-02-23T12:45:55;8.10;99.90
37642;DHT22;23486;51.956;5.888;2024-02-23T12:48:21;8.10;99.90
37642;DHT22;23486;51.956;5.888;2024-02-23T12:50:47;8.20;99.90
37642;DHT22;23486;51.956;5.888;2024-02-23T12:56:02;8.20;99.90
37642;DHT22;23486;51.956;5.888;2024-02-23T12:58:28;8.40;99.90
37642;DHT22;23486;51.956;5.888;2024-02-23T13:00:53;8.40;99.90
37642;DHT22;23486;51.956;5.888;2024-02-23T13:03:23;8.40;99.90
37642;DHT22;23486;51.956;5.888;2024-02-23T13:05:48;8.40;99.90
37642;DHT22;23486;51.956;5.888;2024-02-23T13:08:14;8.40;99.90
37642;DHT22;23486;51.956;5.888;2024-02-23T13:10:39;8.40;99.90
37642;DHT22;23486;51.956;5.888;2024-02-23T13:13:04;8.40;99.90
37642;DHT22;23486;51.956;5.888;2024-02-23T13:15:30;8.40;99.90
37642;DHT22;23486;51.956;5.888;2024-02-23T13:17:55;8.40;99.90
37642;DHT22;23486;51.956;5.888;2024-02-23T13:20:22;8.50;99.90
37642;DHT22;23486;51.956;5.888;2024-02-23T13:22:47;8.50;99.90
37642;DHT22;23486;51.956;5.888;2024-02-23T13:25:13;8.70;99.90
37642;DHT22;23486;51.956;5.888;2024-02-23T13:27:38;8.90;99.90
37642;DHT22;23486;51.956;5.888;2024-02-23T13:30:04;9.10;99.90
37642;DHT22;23486;51.956;5.888;2024-02-23T13:32:30;9.20;99.90
37642;DHT22;23486;51.956;5.888;2024-02-23T13:34:55;9.20;99.90
37642;DHT22;23486;51.956;5.888;2024-02-23T13:37:21;9.20;99.90
37642;DHT22;23486;51.956;5.888;2024-02-23T13:39:46;9.20;99.90
37642;DHT22;23486;51.956;5.888;2024-02-23T13:42:12;9.20;99.90
37642;DHT22;23486;51.956;5.888;2024-02-23T13:44:37;9.20;99.90
37642;DHT22;23486;51.956;5.888;2024-02-23T13:47:02;9.10;99.90
37642;DHT22;23486;51.956;5.888;2024-02-23T13:49:28;9.20;99.90
37642;DHT22;23486;51.956;5.888;2024-02-23T13:51:53;9.20;99.90
37642;DHT22;23486;51.956;5.888;2024-02-23T13:54:19;9.40;99.90
37642;DHT22;23486;51.956;5.888;2024-02-23T13:56:44;9.40;99.90
37642;DHT22;23486;51.956;5.888;2024-02-23T13:59:10;9.50;99.90
37642;DHT22;23486;51.956;5.888;2024-02-23T14:01:35;9.50;99.90
37642;DHT22;23486;51.956;5.888;2024-02-23T14:04:05;9.50;99.90
37642;DHT22;23486;51.956;5.888;2024-02-23T14:06:30;9.60;99.90
37642;DHT22;23486;51.956;5.888;2024-02-23T14:08:56;9.70;99.90
37642;DHT22;23486;51.956;5.888;2024-02-23T14:11:21;9.80;99.90
37642;DHT22;23486;51.956;5.888;2024-02-23T14:13:47;9.90;99.90
37642;DHT22;23486;51.956;5.888;2024-02-23T14:16:12;10.10;99.90
37642;DHT22;23486;51.956;5.888;2024-02-23T14:18:38;10.30;99.90
37642;DHT22;23486;51.956;5.888;2024-02-23T14:21:07;10.40;99.90
37642;DHT22;23486;51.956;5.888;2024-02-23T14:23:33;10.50;99.90
37642;DHT22;23486;51.956;5.888;2024-02-23T14:25:59;10.50;99.90
37642;DHT22;23486;51.956;5.888;2024-02-23T14:28:24;10.50;99.90
37642;DHT22;23486;51.956;5.888;2024-02-23T14:30:50;10.30;99.90
37642;DHT22;23486;51.956;5.888;2024-02-23T14:33:15;10.30;99.90
37642;DHT22;23486;51.956;5.888;2024-02-23T14:35:43;10.10;99.90
37642;DHT22;23486;51.956;5.888;2024-02-23T14:38:08;10.10;99.90
37642;DHT22;23486;51.956;5.888;2024-02-23T14:40:34;10.00;99.90
37642;DHT22;23486;51.956;5.888;2024-02-23T14:42:59;9.90;99.90
37642;DHT22;23486;51.956;5.888;2024-02-23T14:45:25;9.80;99.90
37642;DHT22;23486;51.956;5.888;2024-02-23T14:47:52;9.60;99.90
37642;DHT22;23486;51.956;5.888;2024-02-23T14:50:17;9.60;99.90
37642;DHT22;23486;51.956;5.888;2024-02-23T14:52:43;9.50;99.90
37642;DHT22;23486;51.956;5.888;2024-02-23T14:55:09;9.50;99.90
37642;DHT22;23486;51.956;5.888;2024-02-23T14:57:37;9.40;99.90
37642;DHT22;23486;51.956;5.888;2024-02-23T15:00:02;9.30;99.90
37642;DHT22;23486;51.956;5.888;2024-02-23T15:02:28;9.20;99.90
37642;DHT22;23486;51.956;5.888;2024-02-23T15:04:54;9.20;99.90
37642;DHT22;23486;51.956;5.888;2024-02-23T15:07:19;9.20;99.90
37642;DHT22;23486;51.956;5.888;2024-02-23T15:09:45;9.20;99.90
37642;DHT22;23486;51.956;5.888;2024-02-23T15:12:10;9.10;99.90
37642;DHT22;23486;51.956;5.888;2024-02-23T15:14:37;9.10;99.90
37642;DHT22;23486;51.956;5.888;2024-02-23T15:17:02;9.00;99.90
37642;DHT22;23486;51.956;5.888;2024-02-23T15:19:28;9.00;99.90
37642;DHT22;23486;51.956;5.888;2024-02-23T15:21:56;8.90;99.90
37642;DHT22;23486;51.956;5.888;2024-02-23T15:24:22;8.90;99.90
37642;DHT22;23486;51.956;5.888;2024-02-23T15:26:49;8.90;99.90
37642;DHT22;23486;51.956;5.888;2024-02-23T15:29:15;8.80;99.90
37642;DHT22;23486;51.956;5.888;2024-02-23T15:31:40;8.80;99.90
37642;DHT22;23486;51.956;5.888;2024-02-23T15:34:08;8.80;99.90
37642;DHT22;23486;51.956;5.888;2024-02-23T15:36:33;8.80;99.90
37642;DHT22;23486;51.956;5.888;2024-02-23T15:38:59;8.70;99.90